KMSY/MSY METAR and TAF weather

Enter ICAO airport designator
Station Type Date Time Source
KMSY METAR 2021/09/25 12:53 UTC NOAA

KMSY 251253Z 11004KT 10SM FEW030 FEW250 19/16 A3011 RMK AO2 SLP200 T01890156 $


Station Type Date Time Source
KMSY Decoded METAR 2021/09/25 12:53 UTC NOAA

NEW ORLEANS INTERNATIONAL AIRPORT, LA, United States (KMSY) 30-00N 90-15W 5M
Sep 25, 2021 - 08:53 AM EDT / 2021.09.25 1253 UTC
Wind: from the ESE (110 degrees) at 5 MPH (4 KT):0
Visibility: 10 mile(s):0
Sky conditions: mostly clear
Temperature: 66.0 F (18.9 C)
Dew Point: 60.1 F (15.6 C)
Relative Humidity: 81%
Pressure (altimeter): 30.11 in. Hg (1019 hPa)
ob: KMSY 251253Z 11004KT 10SM FEW030 FEW250 19/16 A3011 RMK AO2 SLP200 T01890156
cycle: 13

Station Type Date Time Source
KMSY TAF 2021/09/25 12:22 UTC NOAA

TAF KMSY 251120Z 2512/2618 02007KT P6SM SKC

Example: see airport list